createdAt,value
2023-05-08T00:00:39.575Z,244.74
2023-05-08T00:01:39.554Z,245.34
2023-05-08T00:02:39.581Z,245.14
2023-05-08T00:03:39.629Z,245.31
2023-05-08T00:04:39.556Z,245.09
2023-05-08T00:05:39.525Z,244.57
2023-05-08T00:06:39.569Z,245.50
2023-05-08T00:07:39.593Z,243.49
2023-05-08T00:08:39.561Z,243.59
2023-05-08T00:09:39.536Z,243.93
2023-05-08T00:10:39.510Z,244.14
2023-05-08T00:11:39.496Z,244.79
2023-05-08T00:12:39.512Z,244.47
2023-05-08T00:13:39.434Z,245.54
2023-05-08T00:14:39.418Z,244.87
2023-05-08T00:15:39.406Z,245.64
2023-05-08T00:16:39.409Z,245.84
2023-05-08T00:17:39.434Z,245.45
2023-05-08T00:18:39.352Z,244.93
2023-05-08T00:19:39.320Z,244.68
2023-05-08T00:20:39.336Z,244.50
2023-05-08T00:21:39.363Z,245.35
2023-05-08T00:22:39.388Z,245.90
2023-05-08T00:23:39.411Z,245.42
2023-05-08T00:24:39.449Z,245.07
2023-05-08T00:25:39.460Z,245.08
2023-05-08T00:26:39.519Z,244.70
2023-05-08T00:27:39.530Z,245.24
2023-05-08T00:28:39.538Z,244.57
2023-05-08T00:29:39.563Z,245.08
2023-05-08T00:30:39.603Z,245.39
2023-05-08T00:31:39.671Z,245.28
2023-05-08T00:32:39.695Z,245.86
2023-05-08T00:33:39.663Z,245.04
2023-05-08T00:34:39.684Z,244.61
2023-05-08T00:35:39.705Z,245.04
2023-05-08T00:36:39.678Z,245.09
2023-05-08T00:37:39.671Z,245.23
2023-05-08T00:38:39.646Z,245.36
2023-05-08T00:39:39.645Z,245.21
2023-05-08T00:40:39.617Z,244.86
2023-05-08T00:41:39.591Z,244.59
2023-05-08T00:42:39.579Z,244.04
2023-05-08T00:43:39.550Z,244.61
2023-05-08T00:44:39.540Z,245.16
2023-05-08T00:45:39.571Z,244.36
2023-05-08T00:46:39.536Z,244.42
2023-05-08T00:47:39.505Z,244.60
2023-05-08T00:48:39.467Z,244.70
2023-05-08T00:49:39.459Z,245.12
2023-05-08T00:50:39.443Z,245.33
2023-05-08T00:51:39.424Z,245.29
2023-05-08T00:52:39.411Z,245.51
2023-05-08T00:53:39.393Z,244.50
2023-05-08T00:54:39.371Z,245.26
2023-05-08T00:55:39.366Z,245.14
2023-05-08T00:56:39.346Z,245.08
2023-05-08T00:57:39.333Z,244.83
2023-05-08T00:58:39.313Z,246.14
2023-05-08T00:59:39.300Z,245.15
2023-05-08T01:00:39.329Z,245.30
2023-05-08T01:01:39.437Z,244.68
2023-05-08T01:02:39.471Z,244.42
2023-05-08T01:03:39.650Z,245.16
2023-05-08T01:04:39.419Z,244.91
2023-05-08T01:05:39.445Z,245.64
2023-05-08T01:06:39.466Z,245.77
2023-05-08T01:07:39.482Z,245.90
2023-05-08T01:08:39.522Z,245.26
2023-05-08T01:09:39.536Z,244.85
2023-05-08T01:10:39.566Z,244.61
2023-05-08T01:11:39.589Z,245.16
2023-05-08T01:12:39.653Z,244.65
2023-05-08T01:13:39.624Z,245.18
2023-05-08T01:14:39.654Z,245.51
2023-05-08T01:15:39.697Z,245.18
2023-05-08T01:16:39.711Z,244.08
2023-05-08T01:17:39.752Z,244.77
2023-05-08T01:18:39.749Z,245.01
2023-05-08T01:19:39.776Z,244.77
2023-05-08T01:20:39.792Z,245.50
2023-05-08T01:21:39.822Z,245.64
2023-05-08T01:22:39.853Z,245.24
2023-05-08T01:23:39.889Z,244.86
2023-05-08T01:24:39.909Z,244.32
2023-05-08T01:25:39.944Z,244.90
2023-05-08T01:26:39.961Z,245.01
2023-05-08T01:27:39.995Z,245.10
2023-05-08T01:28:40.033Z,244.78
2023-05-08T01:29:40.048Z,244.91
2023-05-08T01:30:40.074Z,245.33
2023-05-08T01:31:40.088Z,245.15
2023-05-08T01:32:40.170Z,244.80
2023-05-08T01:33:40.134Z,244.87
2023-05-08T01:34:40.060Z,244.98
2023-05-08T01:35:40.045Z,244.90
2023-05-08T01:36:40.051Z,245.01
2023-05-08T01:37:39.996Z,245.00
2023-05-08T01:38:39.987Z,245.35
2023-05-08T01:39:39.955Z,245.73
2023-05-08T01:40:39.992Z,245.23
2023-05-08T01:41:39.925Z,244.98
2023-05-08T01:42:39.891Z,245.70
2023-05-08T01:43:39.900Z,245.07
2023-05-08T01:44:39.893Z,245.21
2023-05-08T01:45:39.918Z,245.51
2023-05-08T01:46:39.996Z,245.03
2023-05-08T01:47:40.003Z,245.00
2023-05-08T01:48:40.004Z,244.72
2023-05-08T01:49:40.010Z,244.76
2023-05-08T01:50:40.039Z,244.87
2023-05-08T01:51:40.088Z,245.32
2023-05-08T01:52:40.088Z,244.96
2023-05-08T01:53:40.086Z,245.00
2023-05-08T01:54:40.052Z,245.07
2023-05-08T01:55:40.066Z,245.42
2023-05-08T01:56:40.019Z,245.08
2023-05-08T01:57:40.001Z,245.51
2023-05-08T01:58:40.053Z,244.51
2023-05-08T01:59:39.962Z,244.93
2023-05-08T02:00:40.155Z,245.25
2023-05-08T02:01:39.932Z,245.52
2023-05-08T02:02:39.998Z,244.53
2023-05-08T02:03:39.987Z,244.59
2023-05-08T02:04:39.877Z,244.81
2023-05-08T02:05:39.856Z,244.86
2023-05-08T02:06:39.846Z,245.50
2023-05-08T02:07:39.824Z,244.62
2023-05-08T02:08:39.800Z,244.76
2023-05-08T02:09:39.789Z,245.24
2023-05-08T02:10:39.763Z,245.17
2023-05-08T02:11:39.737Z,246.05
2023-05-08T02:12:39.755Z,245.30
2023-05-08T02:13:39.700Z,245.31
2023-05-08T02:14:39.686Z,245.10
2023-05-08T02:15:39.680Z,244.57
2023-05-08T02:16:39.721Z,244.63
2023-05-08T02:17:39.717Z,245.62
2023-05-08T02:18:39.640Z,244.71
2023-05-08T02:19:39.612Z,244.79
2023-05-08T02:20:39.608Z,245.02
2023-05-08T02:21:39.583Z,245.16
2023-05-08T02:22:39.573Z,245.10
2023-05-08T02:23:39.547Z,245.13
2023-05-08T02:24:39.522Z,246.33
2023-05-08T02:25:39.498Z,244.35
2023-05-08T02:26:39.490Z,244.43
2023-05-08T02:27:39.461Z,245.93
2023-05-08T02:28:39.451Z,244.57
2023-05-08T02:29:39.422Z,245.08
2023-05-08T02:30:39.463Z,243.71
2023-05-08T02:31:39.521Z,244.77
2023-05-08T02:32:39.539Z,245.05
2023-05-08T02:33:39.532Z,245.44
2023-05-08T02:34:45.187Z,245.62
2023-05-08T02:35:40.552Z,245.64
2023-05-08T02:36:39.535Z,245.64
2023-05-08T02:37:39.504Z,245.08
2023-05-08T02:38:39.515Z,245.28
2023-05-08T02:39:39.498Z,245.67
2023-05-08T02:40:39.455Z,245.72
2023-05-08T02:41:39.447Z,245.85
2023-05-08T02:42:39.413Z,245.64
2023-05-08T02:43:39.392Z,246.00
2023-05-08T02:44:39.356Z,245.55
2023-05-08T02:45:39.374Z,244.01
2023-05-08T02:46:39.411Z,244.73
2023-05-08T02:47:39.341Z,245.74
2023-05-08T02:48:39.304Z,245.22
2023-05-08T02:49:39.309Z,244.41
2023-05-08T02:50:39.336Z,244.89
2023-05-08T02:51:39.378Z,244.65
2023-05-08T02:52:39.402Z,244.98
2023-05-08T02:53:39.432Z,245.09
2023-05-08T02:54:39.446Z,245.16
2023-05-08T02:55:39.390Z,245.34
2023-05-08T02:56:39.378Z,245.22
2023-05-08T02:57:39.354Z,245.34
2023-05-08T02:58:39.328Z,244.68
2023-05-08T02:59:39.360Z,244.89
2023-05-08T03:00:39.296Z,244.69
2023-05-08T03:01:39.305Z,244.01
2023-05-08T03:02:39.382Z,239.01
2023-05-08T03:03:39.404Z,231.80
2023-05-08T03:04:39.224Z,222.07
2023-05-08T03:05:39.246Z,214.24
2023-05-08T03:06:39.304Z,207.44
2023-05-08T03:07:39.275Z,199.85
2023-05-08T03:08:39.252Z,190.67
2023-05-08T03:09:39.240Z,180.65
2023-05-08T03:10:39.226Z,171.38
2023-05-08T03:11:39.211Z,160.35
2023-05-08T03:12:41.325Z,151.08
2023-05-08T03:13:39.171Z,141.81
2023-05-08T03:14:39.158Z,130.99
2023-05-08T03:15:39.181Z,124.64
2023-05-08T03:16:39.143Z,116.74
2023-05-08T03:17:39.185Z,105.91
2023-05-08T03:18:39.100Z,100.09
2023-05-08T03:19:39.112Z,92.06
2023-05-08T03:20:39.089Z,84.71
2023-05-08T03:21:39.061Z,78.66
2023-05-08T03:22:39.075Z,73.85
2023-05-08T03:23:39.032Z,67.78
2023-05-08T03:24:39.031Z,62.34
2023-05-08T03:25:39.002Z,56.03
2023-05-08T03:26:38.988Z,51.41
2023-05-08T03:27:38.971Z,49.77
2023-05-08T03:28:38.968Z,45.70
2023-05-08T03:29:38.949Z,41.89
2023-05-08T03:30:38.937Z,39.76
2023-05-08T03:31:39.005Z,37.00
2023-05-08T03:32:38.943Z,35.31
2023-05-08T03:33:38.913Z,34.20
2023-05-08T03:34:38.877Z,30.87
2023-05-08T03:35:38.872Z,32.24
2023-05-08T03:36:38.880Z,32.47
2023-05-08T03:37:38.917Z,32.05
2023-05-08T03:38:38.959Z,32.17
2023-05-08T03:39:38.985Z,32.04
2023-05-08T03:40:39.048Z,30.27
2023-05-08T03:41:39.031Z,28.82
2023-05-08T03:42:39.052Z,30.98
2023-05-08T03:43:39.123Z,31.39
2023-05-08T03:44:39.038Z,31.16
2023-05-08T03:45:39.017Z,30.97
2023-05-08T03:46:39.034Z,30.18
2023-05-08T03:47:39.095Z,30.36
2023-05-08T03:48:39.025Z,30.57
2023-05-08T03:49:39.026Z,30.32
2023-05-08T03:50:39.028Z,30.84
2023-05-08T03:51:39.011Z,31.98
2023-05-08T03:52:39.004Z,31.22
2023-05-08T03:53:39.000Z,30.51
2023-05-08T03:54:38.993Z,35.36
2023-05-08T03:55:39.001Z,36.19
2023-05-08T03:56:38.986Z,37.42
2023-05-08T03:57:38.989Z,37.48
2023-05-08T03:58:38.959Z,38.01
2023-05-08T03:59:39.002Z,38.64
2023-05-08T04:00:38.950Z,40.69
2023-05-08T04:01:38.963Z,42.43
2023-05-08T04:02:42.024Z,43.39
2023-05-08T04:03:38.980Z,44.58
2023-05-08T04:04:38.894Z,45.06
2023-05-08T04:05:38.883Z,43.91
2023-05-08T04:06:48.471Z,45.29
2023-05-08T04:07:39.851Z,45.33
2023-05-08T04:08:38.843Z,45.46
2023-05-08T04:09:38.830Z,45.59
2023-05-08T04:10:38.816Z,45.28
2023-05-08T04:11:38.808Z,46.32
2023-05-08T04:12:38.959Z,43.78
2023-05-08T04:13:38.802Z,44.04
2023-05-08T04:14:38.799Z,44.15
2023-05-08T04:15:38.787Z,43.78
2023-05-08T04:16:38.827Z,41.88
2023-05-08T04:17:38.784Z,42.52
2023-05-08T04:18:38.752Z,43.23
2023-05-08T04:19:38.736Z,43.24
2023-05-08T04:20:38.728Z,44.25
2023-05-08T04:22:57.574Z,25.00
2023-05-08T04:23:57.550Z,25.00
2023-05-08T04:24:57.578Z,25.00
2023-05-08T04:25:57.551Z,25.00
2023-05-08T04:26:57.566Z,25.00
2023-05-08T04:27:57.587Z,27.13
2023-05-08T04:28:57.580Z,29.07
2023-05-08T04:29:57.575Z,33.91
2023-05-08T04:30:57.700Z,34.25
2023-05-08T04:31:57.624Z,36.45
2023-05-08T04:32:57.624Z,42.78
2023-05-08T04:33:57.591Z,56.86
2023-05-08T04:34:57.604Z,74.78
2023-05-08T04:35:57.604Z,81.46
2023-05-08T04:36:57.618Z,86.82
2023-05-08T04:37:57.621Z,87.78
2023-05-08T04:38:59.075Z,89.46
2023-05-08T04:39:57.645Z,92.00
2023-05-08T04:40:57.744Z,92.11
2023-05-08T04:41:57.760Z,91.08
2023-05-08T04:42:57.827Z,92.03
2023-05-08T04:43:57.835Z,91.06
2023-05-08T04:44:57.844Z,84.18
2023-05-08T04:45:57.853Z,77.02
2023-05-08T04:46:57.864Z,76.13
2023-05-08T04:47:57.886Z,76.23
2023-05-08T04:48:57.870Z,76.06
2023-05-08T04:49:59.512Z,76.73
2023-05-08T04:50:57.876Z,72.23
2023-05-08T04:51:57.897Z,70.00
2023-05-08T04:52:57.893Z,65.32
2023-05-08T04:53:57.895Z,60.22
2023-05-08T04:54:57.897Z,56.71
2023-05-08T04:55:57.904Z,55.15
2023-05-08T04:56:57.895Z,55.23
2023-05-08T04:57:57.901Z,51.31
2023-05-08T04:58:57.916Z,52.58
2023-05-08T04:59:57.907Z,47.23
2023-05-08T05:00:57.907Z,49.24
2023-05-08T05:01:57.978Z,52.68
2023-05-08T05:02:57.948Z,48.69
2023-05-08T05:03:57.934Z,49.19
2023-05-08T05:04:57.949Z,45.71
2023-05-08T05:05:57.935Z,44.97
2023-05-08T05:06:57.936Z,42.35
2023-05-08T05:07:57.944Z,39.19
2023-05-08T05:08:57.947Z,31.33
2023-05-08T05:09:57.952Z,30.82
2023-05-08T05:10:57.953Z,25.09
2023-05-08T05:11:58.381Z,37.07
2023-05-08T05:12:58.028Z,46.31
2023-05-08T05:13:57.975Z,52.32
2023-05-08T05:14:57.978Z,53.34
2023-05-08T05:15:57.992Z,53.77
2023-05-08T05:16:57.976Z,55.81
2023-05-08T05:17:58.042Z,54.48
2023-05-08T05:18:58.000Z,59.08
2023-05-08T05:19:58.001Z,69.95
2023-05-08T05:20:57.994Z,88.22
2023-05-08T05:21:58.012Z,122.21
2023-05-08T05:22:57.994Z,133.66
2023-05-08T05:23:57.991Z,142.35
2023-05-08T05:24:57.994Z,153.69
2023-05-08T05:25:58.004Z,163.56
2023-05-08T05:26:58.008Z,176.47
2023-05-08T05:27:58.020Z,186.45
2023-05-08T05:28:58.065Z,193.82
2023-05-08T05:29:58.108Z,206.95
2023-05-08T05:30:58.170Z,220.75
2023-05-08T05:31:58.296Z,243.89
2023-05-08T05:32:58.296Z,251.00
2023-05-08T05:33:58.283Z,221.73
2023-05-08T05:34:58.351Z,179.35
2023-05-08T05:35:58.414Z,137.46
2023-05-08T05:36:58.473Z,147.92
2023-05-08T05:37:58.690Z,93.72
2023-05-08T05:38:58.597Z,42.02
2023-05-08T05:39:58.633Z,38.12
2023-05-08T05:40:58.683Z,18.81
2023-05-08T05:41:58.755Z,35.07
2023-05-08T05:42:59.709Z,26.84
2023-05-08T05:43:58.744Z,0.00
2023-05-08T05:44:58.849Z,0.00
2023-05-08T05:45:58.894Z,0.00
2023-05-08T05:46:59.021Z,4.08
2023-05-08T05:47:59.226Z,24.48
2023-05-08T05:48:58.983Z,37.53
2023-05-08T05:49:59.069Z,33.57
2023-05-08T05:50:59.223Z,43.80
2023-05-08T05:51:59.167Z,40.99
2023-05-08T05:52:59.270Z,25.00
2023-05-08T05:53:59.376Z,32.50
2023-05-08T05:54:59.432Z,29.37
2023-05-08T05:55:59.470Z,24.38
2023-05-08T05:56:59.553Z,32.83
2023-05-08T05:57:59.586Z,56.48
2023-05-08T05:58:59.634Z,47.23
2023-05-08T05:59:59.676Z,41.64
2023-05-08T06:00:59.665Z,42.30
2023-05-08T06:01:59.735Z,49.96
2023-05-08T06:02:59.807Z,52.66
2023-05-08T06:03:59.785Z,63.72
2023-05-08T06:04:59.737Z,48.05
2023-05-08T06:05:59.926Z,51.12
2023-05-08T06:06:59.743Z,57.36
2023-05-08T06:07:59.743Z,58.28
2023-05-08T06:08:59.780Z,63.68
2023-05-08T06:09:59.779Z,85.76
2023-05-08T06:10:59.795Z,80.06
2023-05-08T06:11:59.785Z,82.18
2023-05-08T06:12:59.905Z,76.60
2023-05-08T06:13:59.801Z,80.73
2023-05-08T06:14:59.820Z,77.35
2023-05-08T06:15:59.899Z,65.77
2023-05-08T06:17:00.077Z,77.43
2023-05-08T06:18:00.139Z,76.70
2023-05-08T06:19:00.112Z,81.28
2023-05-08T06:20:00.112Z,72.24
2023-05-08T06:21:00.110Z,66.50
2023-05-08T06:22:00.127Z,70.04
2023-05-08T06:23:00.132Z,73.30
2023-05-08T06:24:00.110Z,73.07
2023-05-08T06:25:00.136Z,74.79
2023-05-08T06:26:00.245Z,81.55
2023-05-08T06:27:00.123Z,84.41
2023-05-08T06:28:00.118Z,77.94
2023-05-08T06:29:00.124Z,87.09
2023-05-08T06:30:00.196Z,85.85
2023-05-08T06:31:00.294Z,86.15
2023-05-08T06:32:00.123Z,87.38
2023-05-08T06:33:00.212Z,76.02
2023-05-08T06:34:00.157Z,73.72
2023-05-08T06:35:00.223Z,76.97
2023-05-08T06:36:00.165Z,79.51
2023-05-08T06:37:00.168Z,59.91
2023-05-08T06:38:00.207Z,49.95
2023-05-08T06:39:00.196Z,76.03
2023-05-08T06:40:11.692Z,70.36
2023-05-08T06:41:01.199Z,73.49
2023-05-08T06:42:00.216Z,51.93
2023-05-08T06:43:00.212Z,76.34
2023-05-08T06:44:00.225Z,79.95
2023-05-08T06:45:00.244Z,97.93
2023-05-08T06:46:00.263Z,131.38
2023-05-08T06:47:00.227Z,172.13
2023-05-08T06:48:00.294Z,160.30
2023-05-08T06:49:00.311Z,173.78
2023-05-08T06:50:00.219Z,158.53
2023-05-08T06:51:00.219Z,160.18
2023-05-08T06:52:00.229Z,141.99
2023-05-08T06:53:00.229Z,131.73
2023-05-08T06:54:00.225Z,139.04
2023-05-08T06:55:00.275Z,118.89
2023-05-08T06:56:00.221Z,129.37
2023-05-08T06:57:00.221Z,143.23
2023-05-08T06:58:00.229Z,134.87
2023-05-08T06:59:07.768Z,136.81
2023-05-08T07:00:01.238Z,136.64
2023-05-08T07:01:00.238Z,112.68
2023-05-08T07:02:00.323Z,122.24
2023-05-08T07:03:00.285Z,130.85
2023-05-08T07:04:00.225Z,120.87
2023-05-08T07:05:00.382Z,105.59
2023-05-08T07:06:00.213Z,103.10
2023-05-08T07:07:00.210Z,115.29
2023-05-08T07:08:00.215Z,121.17
2023-05-08T07:09:00.222Z,98.23
2023-05-08T07:10:00.227Z,105.59
2023-05-08T07:11:00.193Z,131.31
2023-05-08T07:12:00.197Z,117.17
2023-05-08T07:13:00.229Z,118.36
2023-05-08T07:14:00.194Z,128.38
2023-05-08T07:15:03.491Z,121.61
2023-05-08T07:16:01.230Z,118.97
2023-05-08T07:17:00.200Z,112.07
2023-05-08T07:18:00.243Z,119.02
2023-05-08T07:19:00.276Z,133.25
2023-05-08T07:20:00.212Z,166.02
2023-05-08T07:21:00.180Z,178.75
2023-05-08T07:22:00.220Z,189.80
2023-05-08T07:23:00.199Z,207.16
2023-05-08T07:24:00.233Z,223.66
2023-05-08T07:25:00.192Z,243.97
2023-05-08T07:26:00.190Z,249.68
2023-05-08T07:27:00.193Z,244.37
2023-05-08T07:28:01.462Z,247.98
2023-05-08T07:29:00.196Z,256.97
2023-05-08T07:30:00.189Z,255.56
2023-05-08T07:31:00.207Z,255.88
2023-05-08T07:32:00.338Z,257.87
2023-05-08T07:33:00.294Z,263.79
2023-05-08T07:34:00.189Z,256.59
2023-05-08T07:35:00.200Z,256.70
2023-05-08T07:36:00.185Z,259.56
2023-05-08T07:37:00.165Z,261.49
2023-05-08T07:38:00.199Z,269.24
2023-05-08T07:39:00.173Z,280.63
2023-05-08T07:40:00.168Z,268.57
2023-05-08T07:41:00.202Z,259.85
2023-05-08T07:42:00.161Z,178.06
2023-05-08T07:43:00.479Z,140.80
2023-05-08T07:44:00.142Z,117.00
2023-05-08T07:45:00.165Z,113.85
2023-05-08T07:46:00.146Z,109.01
2023-05-08T07:47:00.197Z,113.87
2023-05-08T07:48:00.272Z,113.95
2023-05-08T07:49:00.147Z,113.86
2023-05-08T07:50:00.190Z,106.30
2023-05-08T07:51:00.197Z,100.83
2023-05-08T07:52:00.182Z,94.86
2023-05-08T07:53:00.188Z,101.11
2023-05-08T07:54:00.189Z,106.14
2023-05-08T07:55:00.227Z,117.55
2023-05-08T07:56:00.201Z,126.40
2023-05-08T07:57:00.208Z,136.75
2023-05-08T07:58:00.290Z,143.65
2023-05-08T07:59:00.281Z,147.14
2023-05-08T08:00:00.286Z,150.09
2023-05-08T08:01:00.283Z,154.19
2023-05-08T08:02:00.401Z,150.37
2023-05-08T08:03:00.454Z,147.60
2023-05-08T08:04:00.520Z,133.90
2023-05-08T08:05:00.510Z,138.92
2023-05-08T08:06:00.567Z,132.06
2023-05-08T08:07:01.302Z,143.93
2023-05-08T08:08:00.711Z,159.28
2023-05-08T08:09:00.744Z,183.31
2023-05-08T08:10:00.795Z,205.67
2023-05-08T08:11:02.935Z,221.63
2023-05-08T08:12:00.832Z,234.41
2023-05-08T08:13:00.903Z,244.02
2023-05-08T08:14:00.848Z,250.00
2023-05-08T08:15:00.924Z,250.00
2023-05-08T08:16:00.805Z,250.97
2023-05-08T08:17:00.859Z,250.00
2023-05-08T08:18:00.897Z,249.96
2023-05-08T08:19:00.814Z,250.29
2023-05-08T08:20:00.813Z,251.56
2023-05-08T08:21:00.787Z,253.21
2023-05-08T08:22:00.795Z,255.61
2023-05-08T08:23:00.801Z,254.99
2023-05-08T08:24:00.786Z,247.51
2023-05-08T08:25:00.795Z,246.21
2023-05-08T08:26:00.767Z,243.78
2023-05-08T08:27:00.768Z,237.92
2023-05-08T08:28:00.800Z,235.13
2023-05-08T08:29:00.820Z,238.60
2023-05-08T08:30:16.077Z,234.26
2023-05-08T08:31:01.982Z,234.31
2023-05-08T08:32:00.817Z,235.21
2023-05-08T08:33:00.846Z,237.31
2023-05-08T08:34:00.820Z,234.41
2023-05-08T08:35:00.819Z,229.62
2023-05-08T08:36:00.817Z,222.13
2023-05-08T08:37:00.841Z,217.87
2023-05-08T08:38:00.820Z,214.33
2023-05-08T08:39:00.811Z,211.26
2023-05-08T08:40:00.821Z,207.45
2023-05-08T08:41:00.815Z,202.13
2023-05-08T08:42:00.799Z,200.73
2023-05-08T08:43:00.824Z,192.86
2023-05-08T08:44:00.803Z,189.82
2023-05-08T08:45:00.810Z,183.57
2023-05-08T08:46:00.848Z,179.54
2023-05-08T08:47:00.903Z,179.25
2023-05-08T08:48:00.885Z,177.85
2023-05-08T08:49:00.796Z,177.18
2023-05-08T08:50:00.785Z,175.91
2023-05-08T08:51:00.788Z,172.55
2023-05-08T08:52:00.814Z,175.96
2023-05-08T08:53:00.797Z,179.54
2023-05-08T08:54:00.781Z,186.32
2023-05-08T08:55:00.793Z,196.12
2023-05-08T08:56:00.803Z,195.23
2023-05-08T08:57:00.787Z,186.55
2023-05-08T08:58:00.763Z,185.25
2023-05-08T08:59:00.773Z,187.08
2023-05-08T09:00:00.784Z,182.63
2023-05-08T09:01:00.761Z,181.42
2023-05-08T09:02:00.785Z,177.00
2023-05-08T09:03:00.888Z,174.44
2023-05-08T09:04:00.846Z,179.21
2023-05-08T09:05:00.724Z,185.04
2023-05-08T09:06:00.732Z,182.71
2023-05-08T09:07:00.734Z,175.27
2023-05-08T09:08:00.742Z,170.56
2023-05-08T09:09:00.734Z,167.93
2023-05-08T09:10:00.772Z,169.68
2023-05-08T09:11:00.743Z,159.56
2023-05-08T09:12:00.731Z,157.64
2023-05-08T09:13:00.833Z,145.55
2023-05-08T09:14:00.739Z,141.56
2023-05-08T09:15:00.722Z,133.83
2023-05-08T09:16:00.797Z,140.81
2023-05-08T09:17:00.757Z,141.99
2023-05-08T09:18:00.832Z,140.36
2023-05-08T09:19:00.877Z,134.15
2023-05-08T09:20:00.808Z,128.15
2023-05-08T09:21:00.809Z,128.84
2023-05-08T09:22:00.810Z,124.81
2023-05-08T09:23:00.798Z,128.89
2023-05-08T09:24:00.794Z,129.01
2023-05-08T09:25:00.795Z,129.99
2023-05-08T09:26:00.794Z,132.96
2023-05-08T09:27:00.794Z,140.65
2023-05-08T09:28:00.803Z,166.02
2023-05-08T09:29:00.794Z,185.91
2023-05-08T09:30:00.811Z,198.40
2023-05-08T09:31:00.804Z,212.43
2023-05-08T09:32:00.840Z,226.06
2023-05-08T09:33:00.845Z,226.50
2023-05-08T09:34:00.792Z,229.34
2023-05-08T09:35:00.869Z,237.32
2023-05-08T09:36:00.786Z,250.16
2023-05-08T09:37:00.774Z,270.59
2023-05-08T09:38:00.777Z,267.71
2023-05-08T09:39:00.759Z,263.63
2023-05-08T09:40:00.782Z,259.63
2023-05-08T09:41:00.761Z,254.11
2023-05-08T09:42:00.821Z,249.85
2023-05-08T09:43:00.861Z,249.65
2023-05-08T09:44:00.759Z,244.02
2023-05-08T09:45:00.734Z,197.52
2023-05-08T09:46:00.763Z,160.01
2023-05-08T09:47:00.723Z,130.05
2023-05-08T09:48:00.764Z,116.92
2023-05-08T09:49:00.707Z,103.06
2023-05-08T09:50:00.747Z,92.86
2023-05-08T09:51:00.797Z,92.33
2023-05-08T09:52:00.772Z,104.49
2023-05-08T09:53:00.716Z,112.50
2023-05-08T09:54:00.717Z,131.24
2023-05-08T09:55:00.737Z,126.56
2023-05-08T09:56:00.712Z,127.79
2023-05-08T09:57:00.749Z,141.33
2023-05-08T09:58:00.702Z,142.76
2023-05-08T09:59:00.736Z,153.74
2023-05-08T10:00:00.774Z,165.98
2023-05-08T10:01:00.902Z,177.71
2023-05-08T10:02:00.883Z,189.35
2023-05-08T10:03:01.068Z,194.97
2023-05-08T10:04:01.024Z,185.46
2023-05-08T10:05:01.081Z,196.49
2023-05-08T10:06:01.123Z,193.95
2023-05-08T10:07:01.274Z,175.09
2023-05-08T10:08:01.248Z,171.19
2023-05-08T10:09:01.290Z,182.86
2023-05-08T10:10:01.253Z,171.14
2023-05-08T10:11:01.250Z,183.57
2023-05-08T10:12:01.229Z,189.32
2023-05-08T10:13:01.247Z,180.72
2023-05-08T10:14:01.225Z,188.52
2023-05-08T10:15:01.232Z,180.77
2023-05-08T10:16:01.198Z,193.64
2023-05-08T10:17:01.277Z,202.34
2023-05-08T10:18:01.233Z,197.75
2023-05-08T10:19:01.163Z,195.77
2023-05-08T10:20:01.153Z,187.81
2023-05-08T10:21:01.223Z,208.02
2023-05-08T10:22:01.181Z,208.23
2023-05-08T10:23:01.270Z,209.48
2023-05-08T10:24:01.190Z,213.29
2023-05-08T10:25:01.143Z,219.75
2023-05-08T10:26:01.152Z,227.43
2023-05-08T10:27:06.141Z,229.18
2023-05-08T10:28:02.200Z,229.38
2023-05-08T10:29:01.114Z,230.33
2023-05-08T10:30:01.164Z,232.89
2023-05-08T10:31:01.169Z,234.39
2023-05-08T10:32:01.099Z,238.45
2023-05-08T10:33:01.158Z,241.30
2023-05-08T10:34:01.097Z,243.42
2023-05-08T10:35:01.075Z,242.59
2023-05-08T10:36:01.078Z,238.80
2023-05-08T10:37:01.057Z,218.21
2023-05-08T10:38:01.071Z,197.35
2023-05-08T10:39:01.151Z,201.96
2023-05-08T10:40:01.054Z,205.43
2023-05-08T10:41:00.997Z,206.15
2023-05-08T10:42:00.999Z,204.51
2023-05-08T10:43:01.001Z,182.32
2023-05-08T10:44:03.136Z,148.13
2023-05-08T10:45:01.072Z,117.69
2023-05-08T10:46:01.151Z,107.84
2023-05-08T10:47:01.180Z,94.75
2023-05-08T10:48:01.276Z,81.53
2023-05-08T10:49:01.283Z,66.22
2023-05-08T10:50:01.347Z,67.86
2023-05-08T10:51:01.390Z,51.87
2023-05-08T10:52:01.419Z,67.02
2023-05-08T10:53:01.435Z,73.08
2023-05-08T10:54:01.485Z,87.66
2023-05-08T10:55:01.540Z,91.68
2023-05-08T10:56:01.604Z,80.25
2023-05-08T10:57:01.663Z,69.77
2023-05-08T10:58:01.750Z,74.16
2023-05-08T10:59:01.775Z,73.54
2023-05-08T11:00:01.821Z,69.80
2023-05-08T11:01:01.888Z,77.20
2023-05-08T11:02:01.949Z,71.48
2023-05-08T11:03:02.017Z,65.69
2023-05-08T11:04:02.111Z,73.07
2023-05-08T11:05:02.063Z,74.56
2023-05-08T11:06:02.210Z,62.61
2023-05-08T11:07:02.162Z,57.96
2023-05-08T11:08:02.240Z,63.42
2023-05-08T11:09:02.307Z,62.47
2023-05-08T11:10:02.342Z,59.74
2023-05-08T11:11:02.397Z,55.70
2023-05-08T11:12:02.448Z,69.11
2023-05-08T11:13:02.532Z,72.59
2023-05-08T11:14:02.557Z,75.54
2023-05-08T11:15:02.599Z,72.78
2023-05-08T11:16:02.637Z,65.65
2023-05-08T11:17:02.624Z,74.46
2023-05-08T11:18:02.621Z,81.83
2023-05-08T11:19:02.588Z,88.96
2023-05-08T11:20:02.592Z,95.36
2023-05-08T11:21:02.593Z,102.19
2023-05-08T11:22:02.600Z,118.24
2023-05-08T11:23:02.556Z,138.92
2023-05-08T11:24:02.563Z,155.22
2023-05-08T11:25:02.532Z,166.65
2023-05-08T11:26:02.530Z,176.40
2023-05-08T11:27:02.520Z,181.70
2023-05-08T11:28:02.534Z,175.88
2023-05-08T11:29:02.565Z,185.63
2023-05-08T11:30:02.569Z,181.31
2023-05-08T11:31:02.597Z,186.99
2023-05-08T11:32:02.658Z,184.30
2023-05-08T11:33:02.647Z,154.46
2023-05-08T11:34:02.669Z,154.90
2023-05-08T11:35:02.646Z,152.73
2023-05-08T11:36:02.673Z,155.56
2023-05-08T11:37:02.683Z,157.70
2023-05-08T11:38:02.721Z,156.72
2023-05-08T11:39:02.732Z,154.89
2023-05-08T11:40:02.756Z,157.85
2023-05-08T11:41:02.768Z,157.96
2023-05-08T11:42:02.730Z,159.26
2023-05-08T11:43:02.722Z,165.57
2023-05-08T11:44:02.707Z,175.38
2023-05-08T11:45:02.720Z,185.95
2023-05-08T11:46:02.687Z,158.82
2023-05-08T11:47:02.753Z,163.44
2023-05-08T11:48:02.692Z,174.07
2023-05-08T11:49:02.678Z,191.18
2023-05-08T11:50:02.682Z,211.47
2023-05-08T11:51:02.670Z,213.48
2023-05-08T11:52:02.654Z,212.06
2023-05-08T11:53:02.631Z,210.32
2023-05-08T11:54:02.616Z,210.87
2023-05-08T11:55:02.606Z,209.72
2023-05-08T11:56:02.586Z,208.10
2023-05-08T11:57:02.583Z,210.93
2023-05-08T11:58:02.572Z,219.91
2023-05-08T11:59:02.557Z,245.41
2023-05-08T12:00:02.571Z,246.47
2023-05-08T12:01:02.548Z,250.67
2023-05-08T12:02:08.553Z,262.97
2023-05-08T12:03:03.546Z,247.44
2023-05-08T12:04:02.702Z,252.68
2023-05-08T12:05:02.573Z,261.62
2023-05-08T12:06:02.461Z,270.66
2023-05-08T12:07:02.445Z,280.92
2023-05-08T12:08:02.437Z,267.44
2023-05-08T12:09:02.421Z,255.38
2023-05-08T12:10:02.435Z,250.00
2023-05-08T12:11:02.405Z,250.00
2023-05-08T12:12:02.406Z,250.00
2023-05-08T12:13:02.464Z,249.67
2023-05-08T12:14:02.371Z,248.56
2023-05-08T12:15:02.354Z,246.19
2023-05-08T12:16:02.349Z,246.83
2023-05-08T12:17:02.388Z,246.53
2023-05-08T12:18:02.313Z,248.03
2023-05-08T12:19:02.288Z,249.61
2023-05-08T12:20:02.335Z,249.52
2023-05-08T12:21:02.402Z,249.85
2023-05-08T12:22:02.448Z,248.11
2023-05-08T12:23:02.501Z,246.76
2023-05-08T12:24:02.566Z,243.02
2023-05-08T12:25:02.595Z,241.89
2023-05-08T12:26:02.666Z,239.59
2023-05-08T12:27:02.716Z,234.10
2023-05-08T12:28:02.766Z,232.64
2023-05-08T12:29:02.833Z,236.02
2023-05-08T12:30:02.869Z,237.68
2023-05-08T12:31:02.952Z,239.68
2023-05-08T12:32:02.957Z,239.22
2023-05-08T12:33:03.032Z,239.25
2023-05-08T12:34:02.930Z,239.23
2023-05-08T12:35:02.926Z,239.79
2023-05-08T12:36:02.892Z,241.68
2023-05-08T12:37:02.876Z,243.57